sensor_id;sensor_type;location;lat;lon;timestamp;P1;durP1;ratioP1;P2;durP2;ratioP2
25249;SDS011;13201;51.148;13.738;2023-03-23T00:03:30;2.65;;;1.42;;
25249;SDS011;13201;51.148;13.738;2023-03-23T00:05:57;3.40;;;1.47;;
25249;SDS011;13201;51.148;13.738;2023-03-23T00:08:29;2.67;;;1.58;;
25249;SDS011;13201;51.148;13.738;2023-03-23T00:10:56;2.20;;;1.60;;
25249;SDS011;13201;51.148;13.738;2023-03-23T00:13:24;2.17;;;1.23;;
25249;SDS011;13201;51.148;13.738;2023-03-23T00:15:51;1.92;;;1.40;;
25249;SDS011;13201;51.148;13.738;2023-03-23T00:18:18;2.30;;;1.27;;
25249;SDS011;13201;51.148;13.738;2023-03-23T00:20:48;3.40;;;1.40;;
25249;SDS011;13201;51.148;13.738;2023-03-23T00:23:18;1.77;;;1.08;;
25249;SDS011;13201;51.148;13.738;2023-03-23T00:25:50;2.80;;;1.42;;
25249;SDS011;13201;51.148;13.738;2023-03-23T00:30:53;2.10;;;1.30;;
25249;SDS011;13201;51.148;13.738;2023-03-23T00:33:24;1.88;;;1.10;;
25249;SDS011;13201;51.148;13.738;2023-03-23T00:35:52;2.90;;;1.20;;
25249;SDS011;13201;51.148;13.738;2023-03-23T00:38:18;2.17;;;1.10;;
25249;SDS011;13201;51.148;13.738;2023-03-23T00:40:45;1.98;;;1.05;;
25249;SDS011;13201;51.148;13.738;2023-03-23T00:43:13;2.35;;;1.25;;
25249;SDS011;13201;51.148;13.738;2023-03-23T00:45:40;2.22;;;1.15;;
25249;SDS011;13201;51.148;13.738;2023-03-23T00:48:06;1.70;;;1.23;;
25249;SDS011;13201;51.148;13.738;2023-03-23T00:50:31;1.70;;;1.20;;
25249;SDS011;13201;51.148;13.738;2023-03-23T00:52:57;5.85;;;1.20;;
25249;SDS011;13201;51.148;13.738;2023-03-23T00:55:24;3.63;;;1.17;;
25249;SDS011;13201;51.148;13.738;2023-03-23T00:57:50;2.13;;;1.00;;
25249;SDS011;13201;51.148;13.738;2023-03-23T01:00:16;1.23;;;0.82;;
25249;SDS011;13201;51.148;13.738;2023-03-23T01:02:44;3.65;;;1.25;;
25249;SDS011;13201;51.148;13.738;2023-03-23T01:05:10;2.43;;;1.20;;
25249;SDS011;13201;51.148;13.738;2023-03-23T01:30:51;2.17;;;1.00;;
25249;SDS011;13201;51.148;13.738;2023-03-23T01:33:17;1.42;;;1.00;;
25249;SDS011;13201;51.148;13.738;2023-03-23T01:35:43;3.00;;;1.02;;
25249;SDS011;13201;51.148;13.738;2023-03-23T01:38:08;1.33;;;0.70;;
25249;SDS011;13201;51.148;13.738;2023-03-23T01:40:35;2.72;;;0.88;;
25249;SDS011;13201;51.148;13.738;2023-03-23T01:43:00;2.63;;;0.90;;
25249;SDS011;13201;51.148;13.738;2023-03-23T01:45:34;4.78;;;1.33;;
25249;SDS011;13201;51.148;13.738;2023-03-23T01:50:26;1.88;;;0.80;;
25249;SDS011;13201;51.148;13.738;2023-03-23T01:52:55;1.40;;;0.90;;
25249;SDS011;13201;51.148;13.738;2023-03-23T01:55:24;1.75;;;0.80;;
25249;SDS011;13201;51.148;13.738;2023-03-23T01:57:53;1.25;;;0.60;;
25249;SDS011;13201;51.148;13.738;2023-03-23T02:00:20;1.67;;;0.80;;
25249;SDS011;13201;51.148;13.738;2023-03-23T02:02:47;1.25;;;0.70;;
25249;SDS011;13201;51.148;13.738;2023-03-23T02:05:17;2.95;;;0.90;;
25249;SDS011;13201;51.148;13.738;2023-03-23T02:08:04;2.13;;;0.70;;
25249;SDS011;13201;51.148;13.738;2023-03-23T02:10:33;1.63;;;0.70;;
25249;SDS011;13201;51.148;13.738;2023-03-23T02:13:00;2.22;;;0.90;;
25249;SDS011;13201;51.148;13.738;2023-03-23T02:15:30;0.63;;;0.63;;
25249;SDS011;13201;51.148;13.738;2023-03-23T02:18:08;1.25;;;0.65;;
25249;SDS011;13201;51.148;13.738;2023-03-23T02:20:43;2.72;;;0.70;;
25249;SDS011;13201;51.148;13.738;2023-03-23T02:23:39;1.83;;;0.50;;
25249;SDS011;13201;51.148;13.738;2023-03-23T02:34:18;0.75;;;0.52;;
25249;SDS011;13201;51.148;13.738;2023-03-23T02:42:20;0.50;;;0.50;;
25249;SDS011;13201;51.148;13.738;2023-03-23T02:44:51;0.73;;;0.52;;
25249;SDS011;13201;51.148;13.738;2023-03-23T02:47:22;1.00;;;0.40;;
25249;SDS011;13201;51.148;13.738;2023-03-23T02:49:51;0.88;;;0.45;;
25249;SDS011;13201;51.148;13.738;2023-03-23T02:52:24;2.58;;;0.70;;
25249;SDS011;13201;51.148;13.738;2023-03-23T02:54:54;1.45;;;0.60;;
25249;SDS011;13201;51.148;13.738;2023-03-23T02:57:23;1.27;;;0.65;;
25249;SDS011;13201;51.148;13.738;2023-03-23T02:59:51;2.45;;;0.40;;
25249;SDS011;13201;51.148;13.738;2023-03-23T03:04:58;1.25;;;0.68;;
25249;SDS011;13201;51.148;13.738;2023-03-23T03:07:58;1.15;;;0.60;;
25249;SDS011;13201;51.148;13.738;2023-03-23T03:10:44;1.55;;;0.57;;
25249;SDS011;13201;51.148;13.738;2023-03-23T03:18:44;2.15;;;0.60;;
25249;SDS011;13201;51.148;13.738;2023-03-23T03:21:16;1.80;;;0.85;;
25249;SDS011;13201;51.148;13.738;2023-03-23T03:23:45;0.50;;;0.45;;
25249;SDS011;13201;51.148;13.738;2023-03-23T03:26:14;2.35;;;0.60;;
25249;SDS011;13201;51.148;13.738;2023-03-23T03:28:42;0.82;;;0.73;;
25249;SDS011;13201;51.148;13.738;2023-03-23T03:31:13;1.00;;;0.68;;
25249;SDS011;13201;51.148;13.738;2023-03-23T03:33:42;2.20;;;0.77;;
25249;SDS011;13201;51.148;13.738;2023-03-23T03:36:08;2.90;;;0.60;;
25249;SDS011;13201;51.148;13.738;2023-03-23T03:38:42;1.35;;;0.65;;
25249;SDS011;13201;51.148;13.738;2023-03-23T03:41:13;1.13;;;0.68;;
25249;SDS011;13201;51.148;13.738;2023-03-23T03:43:39;1.30;;;0.70;;
25249;SDS011;13201;51.148;13.738;2023-03-23T03:46:05;4.00;;;0.60;;
25249;SDS011;13201;51.148;13.738;2023-03-23T03:48:30;1.20;;;0.50;;
25249;SDS011;13201;51.148;13.738;2023-03-23T03:50:56;1.17;;;0.80;;
25249;SDS011;13201;51.148;13.738;2023-03-23T03:53:23;1.17;;;0.50;;
25249;SDS011;13201;51.148;13.738;2023-03-23T03:55:49;0.98;;;0.60;;
25249;SDS011;13201;51.148;13.738;2023-03-23T03:58:15;0.60;;;0.57;;
25249;SDS011;13201;51.148;13.738;2023-03-23T04:00:41;2.40;;;0.40;;
25249;SDS011;13201;51.148;13.738;2023-03-23T04:03:08;1.50;;;0.50;;
25249;SDS011;13201;51.148;13.738;2023-03-23T04:05:34;1.20;;;0.80;;
25249;SDS011;13201;51.148;13.738;2023-03-23T04:08:01;1.85;;;0.77;;
25249;SDS011;13201;51.148;13.738;2023-03-23T04:10:28;1.27;;;0.60;;
25249;SDS011;13201;51.148;13.738;2023-03-23T04:12:56;1.38;;;0.73;;
25249;SDS011;13201;51.148;13.738;2023-03-23T04:15:22;1.77;;;0.70;;
25249;SDS011;13201;51.148;13.738;2023-03-23T04:17:48;0.57;;;0.43;;
25249;SDS011;13201;51.148;13.738;2023-03-23T04:20:15;0.73;;;0.50;;
25249;SDS011;13201;51.148;13.738;2023-03-23T04:22:42;0.98;;;0.52;;
25249;SDS011;13201;51.148;13.738;2023-03-23T04:25:14;2.00;;;0.80;;
25249;SDS011;13201;51.148;13.738;2023-03-23T04:27:42;1.25;;;0.68;;
25249;SDS011;13201;51.148;13.738;2023-03-23T04:30:12;1.20;;;0.60;;
25249;SDS011;13201;51.148;13.738;2023-03-23T04:32:38;2.35;;;0.63;;
25249;SDS011;13201;51.148;13.738;2023-03-23T04:35:11;1.48;;;0.60;;
25249;SDS011;13201;51.148;13.738;2023-03-23T04:37:39;1.88;;;0.70;;
25249;SDS011;13201;51.148;13.738;2023-03-23T04:40:06;2.40;;;0.80;;
25249;SDS011;13201;51.148;13.738;2023-03-23T04:42:36;1.02;;;0.50;;
25249;SDS011;13201;51.148;13.738;2023-03-23T04:45:02;1.20;;;0.75;;
25249;SDS011;13201;51.148;13.738;2023-03-23T04:47:31;1.25;;;0.73;;
25249;SDS011;13201;51.148;13.738;2023-03-23T04:49:59;1.27;;;0.77;;
25249;SDS011;13201;51.148;13.738;2023-03-23T04:54:53;1.40;;;0.70;;
25249;SDS011;13201;51.148;13.738;2023-03-23T04:57:21;2.05;;;0.68;;
25249;SDS011;13201;51.148;13.738;2023-03-23T04:59:47;3.95;;;0.70;;
25249;SDS011;13201;51.148;13.738;2023-03-23T05:02:13;2.95;;;0.77;;
25249;SDS011;13201;51.148;13.738;2023-03-23T05:04:40;1.33;;;0.75;;
25249;SDS011;13201;51.148;13.738;2023-03-23T05:07:06;3.53;;;1.10;;
25249;SDS011;13201;51.148;13.738;2023-03-23T05:09:33;1.25;;;0.90;;
25249;SDS011;13201;51.148;13.738;2023-03-23T05:14:30;1.77;;;0.95;;
25249;SDS011;13201;51.148;13.738;2023-03-23T05:16:56;2.60;;;1.20;;
25249;SDS011;13201;51.148;13.738;2023-03-23T05:19:21;2.05;;;0.95;;
25249;SDS011;13201;51.148;13.738;2023-03-23T05:21:47;2.78;;;1.13;;
25249;SDS011;13201;51.148;13.738;2023-03-23T05:24:12;1.58;;;1.00;;
25249;SDS011;13201;51.148;13.738;2023-03-23T05:26:38;3.28;;;1.27;;
25249;SDS011;13201;51.148;13.738;2023-03-23T05:29:04;3.83;;;1.13;;
25249;SDS011;13201;51.148;13.738;2023-03-23T05:31:30;1.92;;;1.00;;
25249;SDS011;13201;51.148;13.738;2023-03-23T05:33:57;1.77;;;0.82;;
25249;SDS011;13201;51.148;13.738;2023-03-23T05:36:23;2.25;;;1.08;;
25249;SDS011;13201;51.148;13.738;2023-03-23T05:38:52;4.07;;;1.15;;
25249;SDS011;13201;51.148;13.738;2023-03-23T05:41:18;0.98;;;0.80;;
25249;SDS011;13201;51.148;13.738;2023-03-23T05:43:43;2.10;;;0.90;;
25249;SDS011;13201;51.148;13.738;2023-03-23T05:46:09;2.33;;;0.85;;
25249;SDS011;13201;51.148;13.738;2023-03-23T05:48:35;5.93;;;1.40;;
25249;SDS011;13201;51.148;13.738;2023-03-23T05:51:01;4.32;;;1.30;;
25249;SDS011;13201;51.148;13.738;2023-03-23T05:53:27;3.28;;;1.20;;
25249;SDS011;13201;51.148;13.738;2023-03-23T05:55:57;3.17;;;1.40;;
25249;SDS011;13201;51.148;13.738;2023-03-23T05:58:25;2.60;;;1.30;;
25249;SDS011;13201;51.148;13.738;2023-03-23T06:00:50;7.03;;;1.30;;
25249;SDS011;13201;51.148;13.738;2023-03-23T06:03:16;2.58;;;1.35;;
25249;SDS011;13201;51.148;13.738;2023-03-23T06:05:42;2.42;;;1.15;;
25249;SDS011;13201;51.148;13.738;2023-03-23T06:08:11;2.20;;;1.23;;
25249;SDS011;13201;51.148;13.738;2023-03-23T06:10:37;2.65;;;1.30;;
25249;SDS011;13201;51.148;13.738;2023-03-23T06:13:03;2.70;;;1.15;;
25249;SDS011;13201;51.148;13.738;2023-03-23T06:18:03;4.68;;;2.10;;
25249;SDS011;13201;51.148;13.738;2023-03-23T06:20:30;3.10;;;1.50;;
25249;SDS011;13201;51.148;13.738;2023-03-23T06:25:23;3.07;;;0.90;;
25249;SDS011;13201;51.148;13.738;2023-03-23T06:27:49;3.30;;;1.08;;
25249;SDS011;13201;51.148;13.738;2023-03-23T06:30:17;1.85;;;0.82;;
25249;SDS011;13201;51.148;13.738;2023-03-23T06:32:43;2.67;;;1.02;;
25249;SDS011;13201;51.148;13.738;2023-03-23T06:35:12;5.20;;;1.20;;
25249;SDS011;13201;51.148;13.738;2023-03-23T06:37:38;1.95;;;1.05;;
25249;SDS011;13201;51.148;13.738;2023-03-23T06:40:04;1.80;;;1.00;;
25249;SDS011;13201;51.148;13.738;2023-03-23T06:42:35;0.80;;;0.80;;
25249;SDS011;13201;51.148;13.738;2023-03-23T06:45:01;1.17;;;0.80;;
25249;SDS011;13201;51.148;13.738;2023-03-23T06:47:27;1.27;;;0.95;;
25249;SDS011;13201;51.148;13.738;2023-03-23T06:49:56;4.03;;;1.10;;
25249;SDS011;13201;51.148;13.738;2023-03-23T06:52:22;1.42;;;0.80;;
25249;SDS011;13201;51.148;13.738;2023-03-23T06:54:49;2.58;;;0.73;;
25249;SDS011;13201;51.148;13.738;2023-03-23T06:57:16;1.38;;;0.60;;
25249;SDS011;13201;51.148;13.738;2023-03-23T06:59:42;2.67;;;0.60;;
25249;SDS011;13201;51.148;13.738;2023-03-23T07:02:11;2.92;;;0.68;;
25249;SDS011;13201;51.148;13.738;2023-03-23T07:04:39;1.08;;;0.52;;
25249;SDS011;13201;51.148;13.738;2023-03-23T07:07:05;1.75;;;0.77;;
25249;SDS011;13201;51.148;13.738;2023-03-23T07:09:34;2.40;;;0.80;;
25249;SDS011;13201;51.148;13.738;2023-03-23T07:11:59;2.65;;;0.80;;
25249;SDS011;13201;51.148;13.738;2023-03-23T07:14:25;2.00;;;0.80;;
25249;SDS011;13201;51.148;13.738;2023-03-23T07:16:51;3.45;;;0.80;;
25249;SDS011;13201;51.148;13.738;2023-03-23T07:19:18;1.00;;;0.70;;
25249;SDS011;13201;51.148;13.738;2023-03-23T07:21:44;1.08;;;0.70;;
25249;SDS011;13201;51.148;13.738;2023-03-23T07:24:11;1.07;;;0.70;;
25249;SDS011;13201;51.148;13.738;2023-03-23T07:26:39;1.27;;;0.77;;
25249;SDS011;13201;51.148;13.738;2023-03-23T07:29:06;1.70;;;0.88;;
25249;SDS011;13201;51.148;13.738;2023-03-23T07:31:32;2.95;;;0.60;;
25249;SDS011;13201;51.148;13.738;2023-03-23T07:33:58;1.40;;;0.70;;
25249;SDS011;13201;51.148;13.738;2023-03-23T07:36:25;1.08;;;0.70;;
25249;SDS011;13201;51.148;13.738;2023-03-23T07:38:51;0.77;;;0.70;;
25249;SDS011;13201;51.148;13.738;2023-03-23T07:41:17;1.58;;;0.77;;
25249;SDS011;13201;51.148;13.738;2023-03-23T07:43:44;1.00;;;0.75;;
25249;SDS011;13201;51.148;13.738;2023-03-23T07:46:10;1.33;;;0.88;;
25249;SDS011;13201;51.148;13.738;2023-03-23T07:48:36;1.83;;;1.00;;
25249;SDS011;13201;51.148;13.738;2023-03-23T07:51:02;1.10;;;0.90;;
25249;SDS011;13201;51.148;13.738;2023-03-23T07:53:28;1.55;;;0.80;;
25249;SDS011;13201;51.148;13.738;2023-03-23T07:55:54;2.20;;;1.00;;
25249;SDS011;13201;51.148;13.738;2023-03-23T07:58:20;1.20;;;0.90;;
25249;SDS011;13201;51.148;13.738;2023-03-23T08:00:46;2.90;;;0.90;;
25249;SDS011;13201;51.148;13.738;2023-03-23T08:03:13;1.30;;;0.70;;
25249;SDS011;13201;51.148;13.738;2023-03-23T08:05:40;1.17;;;0.80;;
25249;SDS011;13201;51.148;13.738;2023-03-23T08:08:07;1.08;;;0.90;;
25249;SDS011;13201;51.148;13.738;2023-03-23T08:13:00;1.63;;;0.97;;
25249;SDS011;13201;51.148;13.738;2023-03-23T08:15:26;1.87;;;0.63;;
25249;SDS011;13201;51.148;13.738;2023-03-23T08:17:53;1.15;;;0.95;;
25249;SDS011;13201;51.148;13.738;2023-03-23T08:20:19;1.35;;;0.80;;
25249;SDS011;13201;51.148;13.738;2023-03-23T08:22:50;1.92;;;1.17;;
25249;SDS011;13201;51.148;13.738;2023-03-23T08:25:17;1.55;;;0.90;;
25249;SDS011;13201;51.148;13.738;2023-03-23T08:27:43;2.53;;;1.03;;
25249;SDS011;13201;51.148;13.738;2023-03-23T08:30:11;1.17;;;0.80;;
25249;SDS011;13201;51.148;13.738;2023-03-23T08:32:39;1.88;;;0.90;;
25249;SDS011;13201;51.148;13.738;2023-03-23T08:35:05;4.03;;;0.82;;
25249;SDS011;13201;51.148;13.738;2023-03-23T08:37:32;1.75;;;0.90;;
25249;SDS011;13201;51.148;13.738;2023-03-23T08:39:58;3.08;;;0.93;;
25249;SDS011;13201;51.148;13.738;2023-03-23T08:42:24;0.90;;;0.77;;
25249;SDS011;13201;51.148;13.738;2023-03-23T08:44:51;2.07;;;1.00;;
25249;SDS011;13201;51.148;13.738;2023-03-23T08:47:17;1.40;;;0.90;;
25249;SDS011;13201;51.148;13.738;2023-03-23T08:49:43;1.73;;;0.85;;
25249;SDS011;13201;51.148;13.738;2023-03-23T08:52:10;1.10;;;0.77;;
25249;SDS011;13201;51.148;13.738;2023-03-23T08:54:36;1.13;;;0.70;;
25249;SDS011;13201;51.148;13.738;2023-03-23T08:57:03;1.55;;;1.00;;
25249;SDS011;13201;51.148;13.738;2023-03-23T08:59:29;2.77;;;1.07;;
25249;SDS011;13201;51.148;13.738;2023-03-23T09:01:55;1.85;;;1.00;;
25249;SDS011;13201;51.148;13.738;2023-03-23T09:04:21;1.60;;;0.90;;
25249;SDS011;13201;51.148;13.738;2023-03-23T09:06:46;1.52;;;1.00;;
25249;SDS011;13201;51.148;13.738;2023-03-23T09:09:12;2.55;;;1.00;;
25249;SDS011;13201;51.148;13.738;2023-03-23T09:11:38;1.45;;;0.82;;
25249;SDS011;13201;51.148;13.738;2023-03-23T09:14:05;2.28;;;1.05;;
25249;SDS011;13201;51.148;13.738;2023-03-23T09:16:32;1.38;;;1.00;;
25249;SDS011;13201;51.148;13.738;2023-03-23T09:18:59;3.97;;;1.20;;
25249;SDS011;13201;51.148;13.738;2023-03-23T09:21:25;1.43;;;1.00;;
25249;SDS011;13201;51.148;13.738;2023-03-23T09:23:52;2.55;;;1.00;;
25249;SDS011;13201;51.148;13.738;2023-03-23T09:26:18;1.88;;;0.95;;
25249;SDS011;13201;51.148;13.738;2023-03-23T09:28:44;0.93;;;0.80;;
25249;SDS011;13201;51.148;13.738;2023-03-23T09:31:11;1.23;;;0.90;;
25249;SDS011;13201;51.148;13.738;2023-03-23T09:33:37;1.90;;;1.17;;
25249;SDS011;13201;51.148;13.738;2023-03-23T09:36:03;2.65;;;1.15;;
25249;SDS011;13201;51.148;13.738;2023-03-23T09:38:30;5.17;;;1.17;;
25249;SDS011;13201;51.148;13.738;2023-03-23T09:51:19;2.10;;;1.15;;
25249;SDS011;13201;51.148;13.738;2023-03-23T09:53:51;1.40;;;1.10;;
25249;SDS011;13201;51.148;13.738;2023-03-23T09:56:20;2.47;;;0.90;;
25249;SDS011;13201;51.148;13.738;2023-03-23T10:01:20;4.53;;;1.25;;
25249;SDS011;13201;51.148;13.738;2023-03-23T10:03:52;1.98;;;1.20;;
25249;SDS011;13201;51.148;13.738;2023-03-23T10:06:34;1.75;;;1.10;;
25249;SDS011;13201;51.148;13.738;2023-03-23T10:22:10;2.10;;;1.20;;
25249;SDS011;13201;51.148;13.738;2023-03-23T10:24:50;2.35;;;1.27;;
25249;SDS011;13201;51.148;13.738;2023-03-23T10:27:42;1.58;;;0.90;;
25249;SDS011;13201;51.148;13.738;2023-03-23T10:30:19;3.50;;;1.08;;
25249;SDS011;13201;51.148;13.738;2023-03-23T10:32:52;1.20;;;0.90;;
25249;SDS011;13201;51.148;13.738;2023-03-23T10:38:32;1.38;;;0.93;;
25249;SDS011;13201;51.148;13.738;2023-03-23T10:41:10;2.03;;;1.08;;
25249;SDS011;13201;51.148;13.738;2023-03-23T10:43:38;1.52;;;1.15;;
25249;SDS011;13201;51.148;13.738;2023-03-23T10:48:51;2.08;;;1.00;;
25249;SDS011;13201;51.148;13.738;2023-03-23T10:51:21;1.50;;;1.00;;
25249;SDS011;13201;51.148;13.738;2023-03-23T10:53:56;1.27;;;1.00;;
25249;SDS011;13201;51.148;13.738;2023-03-23T10:56:27;1.27;;;0.90;;
25249;SDS011;13201;51.148;13.738;2023-03-23T10:58:59;1.25;;;1.02;;
25249;SDS011;13201;51.148;13.738;2023-03-23T11:01:36;2.90;;;0.88;;
25249;SDS011;13201;51.148;13.738;2023-03-23T11:04:02;1.20;;;0.77;;
25249;SDS011;13201;51.148;13.738;2023-03-23T11:06:29;3.20;;;1.08;;
25249;SDS011;13201;51.148;13.738;2023-03-23T11:09:08;1.77;;;1.00;;
25249;SDS011;13201;51.148;13.738;2023-03-23T11:11:38;1.70;;;0.90;;
25249;SDS011;13201;51.148;13.738;2023-03-23T11:16:51;2.05;;;1.10;;
25249;SDS011;13201;51.148;13.738;2023-03-23T11:19:29;1.50;;;0.93;;
25249;SDS011;13201;51.148;13.738;2023-03-23T11:22:38;1.30;;;0.90;;
25249;SDS011;13201;51.148;13.738;2023-03-23T11:24:55;1.80;;;0.88;;
25249;SDS011;13201;51.148;13.738;2023-03-23T11:27:24;1.42;;;0.90;;
25249;SDS011;13201;51.148;13.738;2023-03-23T11:32:18;2.42;;;0.80;;
25249;SDS011;13201;51.148;13.738;2023-03-23T11:34:47;2.50;;;0.77;;
25249;SDS011;13201;51.148;13.738;2023-03-23T11:37:24;1.17;;;0.90;;
25249;SDS011;13201;51.148;13.738;2023-03-23T11:42:25;2.90;;;1.27;;
25249;SDS011;13201;51.148;13.738;2023-03-23T11:45:24;3.10;;;0.95;;
25249;SDS011;13201;51.148;13.738;2023-03-23T11:51:24;4.13;;;1.08;;
25249;SDS011;13201;51.148;13.738;2023-03-23T11:56:53;2.33;;;0.95;;
25249;SDS011;13201;51.148;13.738;2023-03-23T11:59:27;1.00;;;0.90;;
25249;SDS011;13201;51.148;13.738;2023-03-23T12:21:28;1.52;;;0.80;;
25249;SDS011;13201;51.148;13.738;2023-03-23T12:24:34;1.25;;;0.93;;
25249;SDS011;13201;51.148;13.738;2023-03-23T12:27:10;1.10;;;0.90;;
25249;SDS011;13201;51.148;13.738;2023-03-23T12:38:14;0.68;;;0.68;;
25249;SDS011;13201;51.148;13.738;2023-03-23T12:40:54;0.97;;;0.60;;
25249;SDS011;13201;51.148;13.738;2023-03-23T12:49:13;0.73;;;0.65;;
25249;SDS011;13201;51.148;13.738;2023-03-23T12:57:26;2.30;;;0.90;;
25249;SDS011;13201;51.148;13.738;2023-03-23T13:00:12;1.38;;;1.00;;
25249;SDS011;13201;51.148;13.738;2023-03-23T13:02:56;1.55;;;1.02;;
25249;SDS011;13201;51.148;13.738;2023-03-23T13:05:35;2.10;;;0.90;;
25249;SDS011;13201;51.148;13.738;2023-03-23T13:08:11;1.20;;;0.77;;
25249;SDS011;13201;51.148;13.738;2023-03-23T13:10:44;1.33;;;0.82;;
25249;SDS011;13201;51.148;13.738;2023-03-23T13:13:16;4.43;;;1.00;;
25249;SDS011;13201;51.148;13.738;2023-03-23T13:21:24;1.38;;;1.00;;
25249;SDS011;13201;51.148;13.738;2023-03-23T13:24:03;1.02;;;0.82;;
25249;SDS011;13201;51.148;13.738;2023-03-23T13:26:31;2.73;;;1.10;;
25249;SDS011;13201;51.148;13.738;2023-03-23T13:29:14;2.25;;;1.35;;
25249;SDS011;13201;51.148;13.738;2023-03-23T13:31:46;0.82;;;0.70;;
25249;SDS011;13201;51.148;13.738;2023-03-23T13:39:24;1.48;;;1.00;;
25249;SDS011;13201;51.148;13.738;2023-03-23T13:42:17;1.73;;;0.95;;
25249;SDS011;13201;51.148;13.738;2023-03-23T13:49:55;1.75;;;1.08;;
25249;SDS011;13201;51.148;13.738;2023-03-23T13:52:36;0.70;;;0.65;;
25249;SDS011;13201;51.148;13.738;2023-03-23T13:57:35;1.08;;;0.60;;
25249;SDS011;13201;51.148;13.738;2023-03-23T14:02:51;1.40;;;0.98;;
25249;SDS011;13201;51.148;13.738;2023-03-23T14:05:34;1.85;;;0.90;;
25249;SDS011;13201;51.148;13.738;2023-03-23T14:15:53;1.58;;;0.70;;
25249;SDS011;13201;51.148;13.738;2023-03-23T14:19:12;1.88;;;0.80;;
25249;SDS011;13201;51.148;13.738;2023-03-23T14:21:20;1.25;;;0.80;;
25249;SDS011;13201;51.148;13.738;2023-03-23T14:23:49;0.88;;;0.60;;
25249;SDS011;13201;51.148;13.738;2023-03-23T14:26:16;0.82;;;0.60;;
25249;SDS011;13201;51.148;13.738;2023-03-23T14:28:45;1.63;;;0.80;;
25249;SDS011;13201;51.148;13.738;2023-03-23T14:31:16;0.80;;;0.70;;
25249;SDS011;13201;51.148;13.738;2023-03-23T14:33:48;1.73;;;0.93;;
25249;SDS011;13201;51.148;13.738;2023-03-23T14:38:46;1.10;;;0.80;;
25249;SDS011;13201;51.148;13.738;2023-03-23T14:41:11;2.88;;;0.60;;
25249;SDS011;13201;51.148;13.738;2023-03-23T14:43:38;0.90;;;0.70;;
25249;SDS011;13201;51.148;13.738;2023-03-23T14:46:07;0.55;;;0.55;;
25249;SDS011;13201;51.148;13.738;2023-03-23T14:48:35;1.10;;;0.70;;
25249;SDS011;13201;51.148;13.738;2023-03-23T14:51:03;1.33;;;0.60;;
25249;SDS011;13201;51.148;13.738;2023-03-23T14:53:33;0.93;;;0.80;;
25249;SDS011;13201;51.148;13.738;2023-03-23T14:56:06;2.05;;;0.75;;
25249;SDS011;13201;51.148;13.738;2023-03-23T14:58:36;1.63;;;0.80;;
25249;SDS011;13201;51.148;13.738;2023-03-23T15:03:38;1.38;;;0.82;;
25249;SDS011;13201;51.148;13.738;2023-03-23T15:06:18;1.00;;;0.73;;
25249;SDS011;13201;51.148;13.738;2023-03-23T15:08:46;1.48;;;0.93;;
25249;SDS011;13201;51.148;13.738;2023-03-23T15:13:52;0.90;;;0.63;;
25249;SDS011;13201;51.148;13.738;2023-03-23T15:16:24;1.20;;;0.80;;
25249;SDS011;13201;51.148;13.738;2023-03-23T15:18:56;1.05;;;0.77;;
25249;SDS011;13201;51.148;13.738;2023-03-23T15:21:36;1.45;;;0.70;;
25249;SDS011;13201;51.148;13.738;2023-03-23T15:24:26;1.13;;;0.80;;
25249;SDS011;13201;51.148;13.738;2023-03-23T15:27:07;1.60;;;0.90;;
25249;SDS011;13201;51.148;13.738;2023-03-23T15:30:15;2.03;;;0.77;;
25249;SDS011;13201;51.148;13.738;2023-03-23T15:33:04;1.05;;;0.52;;
25249;SDS011;13201;51.148;13.738;2023-03-23T15:35:35;1.70;;;0.77;;
25249;SDS011;13201;51.148;13.738;2023-03-23T15:38:14;1.17;;;0.68;;
25249;SDS011;13201;51.148;13.738;2023-03-23T15:40:54;1.98;;;1.00;;
25249;SDS011;13201;51.148;13.738;2023-03-23T15:43:22;2.17;;;0.85;;
25249;SDS011;13201;51.148;13.738;2023-03-23T15:48:28;0.80;;;0.80;;
25249;SDS011;13201;51.148;13.738;2023-03-23T15:50:55;1.67;;;0.82;;
25249;SDS011;13201;51.148;13.738;2023-03-23T15:53:29;0.80;;;0.75;;
25249;SDS011;13201;51.148;13.738;2023-03-23T15:55:57;1.08;;;0.90;;
25249;SDS011;13201;51.148;13.738;2023-03-23T15:58:28;1.17;;;0.80;;
25249;SDS011;13201;51.148;13.738;2023-03-23T16:00:55;0.88;;;0.70;;
25249;SDS011;13201;51.148;13.738;2023-03-23T16:03:24;0.68;;;0.50;;
25249;SDS011;13201;51.148;13.738;2023-03-23T16:05:56;2.38;;;0.75;;
25249;SDS011;13201;51.148;13.738;2023-03-23T16:08:24;1.20;;;0.52;;
25249;SDS011;13201;51.148;13.738;2023-03-23T16:10:50;2.67;;;0.70;;
25249;SDS011;13201;51.148;13.738;2023-03-23T16:13:16;1.25;;;0.40;;
25249;SDS011;13201;51.148;13.738;2023-03-23T16:15:42;2.00;;;0.70;;
25249;SDS011;13201;51.148;13.738;2023-03-23T16:18:19;1.43;;;0.70;;
25249;SDS011;13201;51.148;13.738;2023-03-23T16:20:46;2.47;;;0.82;;
25249;SDS011;13201;51.148;13.738;2023-03-23T16:23:13;1.70;;;0.80;;
25249;SDS011;13201;51.148;13.738;2023-03-23T16:25:39;1.02;;;0.60;;
25249;SDS011;13201;51.148;13.738;2023-03-23T16:28:05;0.73;;;0.45;;
25249;SDS011;13201;51.148;13.738;2023-03-23T16:30:33;0.50;;;0.30;;
25249;SDS011;13201;51.148;13.738;2023-03-23T16:33:00;0.50;;;0.50;;
25249;SDS011;13201;51.148;13.738;2023-03-23T16:35:25;0.63;;;0.50;;
25249;SDS011;13201;51.148;13.738;2023-03-23T16:37:53;1.10;;;0.52;;
25249;SDS011;13201;51.148;13.738;2023-03-23T16:40:20;0.73;;;0.52;;
25249;SDS011;13201;51.148;13.738;2023-03-23T16:42:47;0.82;;;0.55;;
25249;SDS011;13201;51.148;13.738;2023-03-23T16:45:14;0.93;;;0.47;;
25249;SDS011;13201;51.148;13.738;2023-03-23T16:47:40;1.93;;;0.57;;
25249;SDS011;13201;51.148;13.738;2023-03-23T16:50:07;0.43;;;0.35;;
25249;SDS011;13201;51.148;13.738;2023-03-23T16:52:38;1.98;;;0.38;;
25249;SDS011;13201;51.148;13.738;2023-03-23T16:55:06;0.82;;;0.60;;
25249;SDS011;13201;51.148;13.738;2023-03-23T16:57:33;0.63;;;0.60;;
25249;SDS011;13201;51.148;13.738;2023-03-23T17:00:01;0.85;;;0.60;;
25249;SDS011;13201;51.148;13.738;2023-03-23T17:02:30;1.52;;;0.80;;
25249;SDS011;13201;51.148;13.738;2023-03-23T17:04:56;1.87;;;0.50;;
25249;SDS011;13201;51.148;13.738;2023-03-23T17:07:22;1.30;;;0.65;;
25249;SDS011;13201;51.148;13.738;2023-03-23T17:09:48;1.02;;;0.60;;
25249;SDS011;13201;51.148;13.738;2023-03-23T17:12:14;0.73;;;0.45;;
25249;SDS011;13201;51.148;13.738;2023-03-23T17:14:40;0.50;;;0.50;;
25249;SDS011;13201;51.148;13.738;2023-03-23T17:17:06;0.70;;;0.60;;
25249;SDS011;13201;51.148;13.738;2023-03-23T17:19:32;1.07;;;0.60;;
25249;SDS011;13201;51.148;13.738;2023-03-23T17:21:58;0.90;;;0.50;;
25249;SDS011;13201;51.148;13.738;2023-03-23T17:24:24;0.87;;;0.60;;
25249;SDS011;13201;51.148;13.738;2023-03-23T17:26:51;1.95;;;0.70;;
25249;SDS011;13201;51.148;13.738;2023-03-23T17:29:17;1.90;;;1.00;;
25249;SDS011;13201;51.148;13.738;2023-03-23T17:31:43;1.00;;;0.70;;
25249;SDS011;13201;51.148;13.738;2023-03-23T17:34:09;1.60;;;0.63;;
25249;SDS011;13201;51.148;13.738;2023-03-23T17:36:35;0.65;;;0.60;;
25249;SDS011;13201;51.148;13.738;2023-03-23T17:39:01;0.88;;;0.80;;
25249;SDS011;13201;51.148;13.738;2023-03-23T17:41:27;2.60;;;0.88;;
25249;SDS011;13201;51.148;13.738;2023-03-23T17:43:53;1.55;;;0.70;;
25249;SDS011;13201;51.148;13.738;2023-03-23T17:46:18;1.88;;;0.65;;
25249;SDS011;13201;51.148;13.738;2023-03-23T17:48:44;1.38;;;0.70;;
25249;SDS011;13201;51.148;13.738;2023-03-23T17:51:10;1.10;;;0.93;;
25249;SDS011;13201;51.148;13.738;2023-03-23T17:53:36;1.83;;;0.60;;
25249;SDS011;13201;51.148;13.738;2023-03-23T17:56:02;0.88;;;0.65;;